シドニー の空港の天気 - METARとTAF

シドニー国際空港 ( YSSY / SYD ) - オーストラリア ニューサウスウェールズ州、Mascot
飛行場実況気象(Metar)
観測時間05/28 20:30 AEST (05/28 10:30 UTC)
風向・風速西 5m/s
視程10km以上
天気現象
少しの雲 雲底高度 1220m
気温16℃
湿度63%
気圧1009hPa
METARYSSY 281030Z 26010KT 9999 FEW040 16/09 Q1009
過去の天気等 Google飛行場航空写真 Wunderground天気予報

過去48時間のMETAR

飛行場予報(TAF)
発表時間: 5/28 18:25 AEST (5/28 08:25 UTC)
予報対象時間: 28日19時 AEST ~ 29日22時 AEST
風向・風速西 3m/s
視程10km以上
少しの雲 雲底高度 910m
29日14時 AEST から
風向・風速南西 5m/s
視程10km以上
少しの雲 雲底高度 1220m
29日19時 AEST から
風向・風速西 4m/s
視程10km以上
なし
TAF YSSY 280825Z 2809/2912 27006KT 9999 FEW030
FM290400 23010KT 9999 FEW040
FM290900 28007KT CAVOK